sensor_id;sensor_type;location;lat;lon;timestamp;pressure;altitude;pressure_sealevel;temperature
12234;BMP180;6179;51.748;8.728;2024-01-30T00:05:30;108413.00;;;222.90
12234;BMP180;6179;51.748;8.728;2024-01-30T00:11:31;108412.00;;;222.90
12234;BMP180;6179;51.748;8.728;2024-01-30T00:17:32;108415.00;;;222.90
12234;BMP180;6179;51.748;8.728;2024-01-30T00:23:33;108418.00;;;222.90
12234;BMP180;6179;51.748;8.728;2024-01-30T00:29:33;108418.00;;;222.90
12234;BMP180;6179;51.748;8.728;2024-01-30T00:35:34;108417.00;;;222.90
12234;BMP180;6179;51.748;8.728;2024-01-30T00:41:35;108419.00;;;222.90
12234;BMP180;6179;51.748;8.728;2024-01-30T00:47:36;108416.00;;;222.90
12234;BMP180;6179;51.748;8.728;2024-01-30T00:53:37;108412.00;;;222.90
12234;BMP180;6179;51.748;8.728;2024-01-30T00:59:37;108409.00;;;222.90
12234;BMP180;6179;51.748;8.728;2024-01-30T01:05:38;108416.00;;;222.90
12234;BMP180;6179;51.748;8.728;2024-01-30T01:11:39;108415.00;;;222.90
12234;BMP180;6179;51.748;8.728;2024-01-30T01:17:40;108415.00;;;222.90
12234;BMP180;6179;51.748;8.728;2024-01-30T01:23:41;108414.00;;;222.90
12234;BMP180;6179;51.748;8.728;2024-01-30T01:29:42;108411.00;;;222.90
12234;BMP180;6179;51.748;8.728;2024-01-30T01:35:43;108417.00;;;222.90
12234;BMP180;6179;51.748;8.728;2024-01-30T01:41:44;108412.00;;;222.90
12234;BMP180;6179;51.748;8.728;2024-01-30T01:47:51;108412.00;;;222.90
12234;BMP180;6179;51.748;8.728;2024-01-30T01:53:54;108412.00;;;222.90
12234;BMP180;6179;51.748;8.728;2024-01-30T01:59:56;108417.00;;;222.90
12234;BMP180;6179;51.748;8.728;2024-01-30T02:05:57;108414.00;;;222.90
12234;BMP180;6179;51.748;8.728;2024-01-30T02:11:58;108413.00;;;222.90
12234;BMP180;6179;51.748;8.728;2024-01-30T02:17:58;108417.00;;;222.90
12234;BMP180;6179;51.748;8.728;2024-01-30T02:24:01;108416.00;;;222.90
12234;BMP180;6179;51.748;8.728;2024-01-30T02:30:02;108413.00;;;222.90
12234;BMP180;6179;51.748;8.728;2024-01-30T02:36:03;108414.00;;;222.90
12234;BMP180;6179;51.748;8.728;2024-01-30T02:42:04;108416.00;;;222.90
12234;BMP180;6179;51.748;8.728;2024-01-30T02:48:06;108419.00;;;222.90
12234;BMP180;6179;51.748;8.728;2024-01-30T02:54:07;108417.00;;;222.90
12234;BMP180;6179;51.748;8.728;2024-01-30T03:00:11;108408.00;;;222.90
12234;BMP180;6179;51.748;8.728;2024-01-30T03:06:12;108412.00;;;222.90
12234;BMP180;6179;51.748;8.728;2024-01-30T03:12:13;108413.00;;;222.90
12234;BMP180;6179;51.748;8.728;2024-01-30T03:18:13;108415.00;;;222.90
12234;BMP180;6179;51.748;8.728;2024-01-30T03:24:14;108411.00;;;222.90
12234;BMP180;6179;51.748;8.728;2024-01-30T03:30:15;108413.00;;;222.90
12234;BMP180;6179;51.748;8.728;2024-01-30T03:36:16;108414.00;;;222.90
12234;BMP180;6179;51.748;8.728;2024-01-30T03:42:17;108413.00;;;222.90
12234;BMP180;6179;51.748;8.728;2024-01-30T03:48:19;108408.00;;;222.90
12234;BMP180;6179;51.748;8.728;2024-01-30T03:54:20;108415.00;;;222.90
12234;BMP180;6179;51.748;8.728;2024-01-30T04:00:21;108416.00;;;222.90
12234;BMP180;6179;51.748;8.728;2024-01-30T04:06:22;108411.00;;;222.90
12234;BMP180;6179;51.748;8.728;2024-01-30T04:12:23;108416.00;;;222.90
12234;BMP180;6179;51.748;8.728;2024-01-30T04:18:23;108413.00;;;222.90
12234;BMP180;6179;51.748;8.728;2024-01-30T04:24:24;108415.00;;;222.90
12234;BMP180;6179;51.748;8.728;2024-01-30T04:30:25;108420.00;;;222.90
12234;BMP180;6179;51.748;8.728;2024-01-30T04:36:26;108412.00;;;222.90
12234;BMP180;6179;51.748;8.728;2024-01-30T04:42:26;108414.00;;;222.90
12234;BMP180;6179;51.748;8.728;2024-01-30T04:48:27;108415.00;;;222.90
12234;BMP180;6179;51.748;8.728;2024-01-30T04:54:28;108415.00;;;222.90
12234;BMP180;6179;51.748;8.728;2024-01-30T05:00:29;108411.00;;;222.90
12234;BMP180;6179;51.748;8.728;2024-01-30T05:06:29;108415.00;;;222.90
12234;BMP180;6179;51.748;8.728;2024-01-30T05:12:30;108416.00;;;222.90
12234;BMP180;6179;51.748;8.728;2024-01-30T05:18:31;108415.00;;;222.90
12234;BMP180;6179;51.748;8.728;2024-01-30T05:24:32;108415.00;;;222.90
12234;BMP180;6179;51.748;8.728;2024-01-30T05:30:32;108415.00;;;222.90
12234;BMP180;6179;51.748;8.728;2024-01-30T05:36:33;108411.00;;;222.90
12234;BMP180;6179;51.748;8.728;2024-01-30T05:42:34;108415.00;;;222.90
12234;BMP180;6179;51.748;8.728;2024-01-30T05:48:35;108415.00;;;222.90
12234;BMP180;6179;51.748;8.728;2024-01-30T05:54:36;108416.00;;;222.90
12234;BMP180;6179;51.748;8.728;2024-01-30T06:00:37;108417.00;;;222.90
12234;BMP180;6179;51.748;8.728;2024-01-30T06:06:37;108419.00;;;222.90
12234;BMP180;6179;51.748;8.728;2024-01-30T06:12:39;108417.00;;;222.90
12234;BMP180;6179;51.748;8.728;2024-01-30T06:18:40;108416.00;;;222.90
12234;BMP180;6179;51.748;8.728;2024-01-30T06:24:40;108415.00;;;222.90
12234;BMP180;6179;51.748;8.728;2024-01-30T06:30:41;108415.00;;;222.90
12234;BMP180;6179;51.748;8.728;2024-01-30T06:36:42;108411.00;;;222.90
12234;BMP180;6179;51.748;8.728;2024-01-30T06:42:43;108412.00;;;222.90
12234;BMP180;6179;51.748;8.728;2024-01-30T06:48:43;108414.00;;;222.90
12234;BMP180;6179;51.748;8.728;2024-01-30T06:54:45;108414.00;;;222.90
12234;BMP180;6179;51.748;8.728;2024-01-30T07:00:46;108414.00;;;222.90
12234;BMP180;6179;51.748;8.728;2024-01-30T07:06:48;108415.00;;;222.90
12234;BMP180;6179;51.748;8.728;2024-01-30T07:12:48;108411.00;;;222.90
12234;BMP180;6179;51.748;8.728;2024-01-30T07:18:49;108415.00;;;222.90
12234;BMP180;6179;51.748;8.728;2024-01-30T07:24:50;108415.00;;;222.90
12234;BMP180;6179;51.748;8.728;2024-01-30T07:30:52;108415.00;;;222.90
12234;BMP180;6179;51.748;8.728;2024-01-30T07:36:53;108416.00;;;222.90
12234;BMP180;6179;51.748;8.728;2024-01-30T07:42:54;108421.00;;;222.90
12234;BMP180;6179;51.748;8.728;2024-01-30T07:48:55;108415.00;;;222.90
12234;BMP180;6179;51.748;8.728;2024-01-30T07:54:57;108418.00;;;222.90
12234;BMP180;6179;51.748;8.728;2024-01-30T08:00:58;108409.00;;;222.90
12234;BMP180;6179;51.748;8.728;2024-01-30T08:06:58;108413.00;;;222.90
12234;BMP180;6179;51.748;8.728;2024-01-30T08:12:59;108415.00;;;222.90
12234;BMP180;6179;51.748;8.728;2024-01-30T08:19:00;108414.00;;;222.90
12234;BMP180;6179;51.748;8.728;2024-01-30T08:25:01;108417.00;;;222.90
12234;BMP180;6179;51.748;8.728;2024-01-30T08:31:02;108421.00;;;222.90
12234;BMP180;6179;51.748;8.728;2024-01-30T08:37:03;230388.00;;;222.90
12234;BMP180;6179;51.748;8.728;2024-01-30T08:43:04;230388.00;;;222.90
12234;BMP180;6179;51.748;8.728;2024-01-30T08:49:05;230388.00;;;222.90
12234;BMP180;6179;51.748;8.728;2024-01-30T08:55:06;230388.00;;;222.90
12234;BMP180;6179;51.748;8.728;2024-01-30T09:01:07;230388.00;;;222.90
12234;BMP180;6179;51.748;8.728;2024-01-30T09:07:09;230388.00;;;222.90
12234;BMP180;6179;51.748;8.728;2024-01-30T09:13:10;230388.00;;;222.90
12234;BMP180;6179;51.748;8.728;2024-01-30T09:19:11;230388.00;;;222.90
12234;BMP180;6179;51.748;8.728;2024-01-30T09:25:12;230388.00;;;222.90
12234;BMP180;6179;51.748;8.728;2024-01-30T09:31:13;230388.00;;;222.90
12234;BMP180;6179;51.748;8.728;2024-01-30T09:37:13;230388.00;;;222.90
12234;BMP180;6179;51.748;8.728;2024-01-30T09:43:21;230388.00;;;222.90
12234;BMP180;6179;51.748;8.728;2024-01-30T09:49:23;230388.00;;;222.90
12234;BMP180;6179;51.748;8.728;2024-01-30T09:55:26;230388.00;;;222.90
12234;BMP180;6179;51.748;8.728;2024-01-30T10:01:27;230388.00;;;222.90
12234;BMP180;6179;51.748;8.728;2024-01-30T10:07:28;230388.00;;;222.90
12234;BMP180;6179;51.748;8.728;2024-01-30T10:13:29;230388.00;;;222.90
12234;BMP180;6179;51.748;8.728;2024-01-30T10:19:29;230388.00;;;222.90
12234;BMP180;6179;51.748;8.728;2024-01-30T10:25:33;230388.00;;;222.90
12234;BMP180;6179;51.748;8.728;2024-01-30T10:31:34;230388.00;;;222.90
12234;BMP180;6179;51.748;8.728;2024-01-30T10:37:35;230388.00;;;222.90
12234;BMP180;6179;51.748;8.728;2024-01-30T10:43:40;230388.00;;;222.90
12234;BMP180;6179;51.748;8.728;2024-01-30T10:49:42;230388.00;;;222.90
12234;BMP180;6179;51.748;8.728;2024-01-30T10:55:45;230388.00;;;222.90
12234;BMP180;6179;51.748;8.728;2024-01-30T11:01:47;230388.00;;;222.90
12234;BMP180;6179;51.748;8.728;2024-01-30T11:07:48;230388.00;;;222.90
12234;BMP180;6179;51.748;8.728;2024-01-30T11:13:50;230388.00;;;222.90
12234;BMP180;6179;51.748;8.728;2024-01-30T11:19:52;230388.00;;;222.90
12234;BMP180;6179;51.748;8.728;2024-01-30T11:25:53;230388.00;;;222.90
12234;BMP180;6179;51.748;8.728;2024-01-30T11:31:56;230388.00;;;222.90
12234;BMP180;6179;51.748;8.728;2024-01-30T11:38:00;230388.00;;;222.90
12234;BMP180;6179;51.748;8.728;2024-01-30T11:44:03;230388.00;;;222.90
12234;BMP180;6179;51.748;8.728;2024-01-30T11:50:05;230388.00;;;222.90
12234;BMP180;6179;51.748;8.728;2024-01-30T11:56:07;230388.00;;;222.90
12234;BMP180;6179;51.748;8.728;2024-01-30T12:02:08;230388.00;;;222.90
12234;BMP180;6179;51.748;8.728;2024-01-30T12:08:15;230388.00;;;222.90
12234;BMP180;6179;51.748;8.728;2024-01-30T12:14:17;230388.00;;;222.90
12234;BMP180;6179;51.748;8.728;2024-01-30T12:20:20;230388.00;;;222.90
12234;BMP180;6179;51.748;8.728;2024-01-30T12:26:22;230388.00;;;222.90
12234;BMP180;6179;51.748;8.728;2024-01-30T12:32:23;230388.00;;;222.90
12234;BMP180;6179;51.748;8.728;2024-01-30T12:38:24;230388.00;;;222.90
12234;BMP180;6179;51.748;8.728;2024-01-30T12:44:26;230388.00;;;222.90
12234;BMP180;6179;51.748;8.728;2024-01-30T12:50:26;230388.00;;;222.90
12234;BMP180;6179;51.748;8.728;2024-01-30T12:56:27;230388.00;;;222.90
12234;BMP180;6179;51.748;8.728;2024-01-30T13:02:28;230388.00;;;222.90
12234;BMP180;6179;51.748;8.728;2024-01-30T13:08:37;230388.00;;;222.90
12234;BMP180;6179;51.748;8.728;2024-01-30T13:14:37;230388.00;;;222.90
12234;BMP180;6179;51.748;8.728;2024-01-30T13:20:38;230388.00;;;222.90
12234;BMP180;6179;51.748;8.728;2024-01-30T13:26:39;230388.00;;;222.90
12234;BMP180;6179;51.748;8.728;2024-01-30T13:32:40;230388.00;;;222.90
12234;BMP180;6179;51.748;8.728;2024-01-30T13:38:41;230388.00;;;222.90
12234;BMP180;6179;51.748;8.728;2024-01-30T13:44:42;230388.00;;;222.90
12234;BMP180;6179;51.748;8.728;2024-01-30T13:50:46;230388.00;;;222.90
12234;BMP180;6179;51.748;8.728;2024-01-30T13:56:47;230388.00;;;222.90
12234;BMP180;6179;51.748;8.728;2024-01-30T14:02:48;230388.00;;;222.90
12234;BMP180;6179;51.748;8.728;2024-01-30T14:08:49;230388.00;;;222.90
12234;BMP180;6179;51.748;8.728;2024-01-30T14:14:50;230388.00;;;222.90
12234;BMP180;6179;51.748;8.728;2024-01-30T14:20:51;230388.00;;;222.90
12234;BMP180;6179;51.748;8.728;2024-01-30T14:26:52;230388.00;;;222.90
12234;BMP180;6179;51.748;8.728;2024-01-30T14:32:53;230388.00;;;222.90
12234;BMP180;6179;51.748;8.728;2024-01-30T14:38:55;230388.00;;;222.90
12234;BMP180;6179;51.748;8.728;2024-01-30T14:44:55;230388.00;;;222.90
12234;BMP180;6179;51.748;8.728;2024-01-30T14:50:56;230388.00;;;222.90
12234;BMP180;6179;51.748;8.728;2024-01-30T14:56:57;230388.00;;;222.90
12234;BMP180;6179;51.748;8.728;2024-01-30T15:03:00;230388.00;;;222.90
12234;BMP180;6179;51.748;8.728;2024-01-30T15:09:00;230388.00;;;222.90
12234;BMP180;6179;51.748;8.728;2024-01-30T15:15:02;230388.00;;;222.90
12234;BMP180;6179;51.748;8.728;2024-01-30T15:21:03;230388.00;;;222.90
12234;BMP180;6179;51.748;8.728;2024-01-30T15:27:04;230388.00;;;222.90
12234;BMP180;6179;51.748;8.728;2024-01-30T15:33:05;230388.00;;;222.90
12234;BMP180;6179;51.748;8.728;2024-01-30T15:39:06;230388.00;;;222.90
12234;BMP180;6179;51.748;8.728;2024-01-30T15:45:07;230388.00;;;222.90
12234;BMP180;6179;51.748;8.728;2024-01-30T15:51:08;230388.00;;;222.90
12234;BMP180;6179;51.748;8.728;2024-01-30T15:57:08;230388.00;;;222.90
12234;BMP180;6179;51.748;8.728;2024-01-30T16:03:09;230388.00;;;222.90
12234;BMP180;6179;51.748;8.728;2024-01-30T16:09:10;230388.00;;;222.90
12234;BMP180;6179;51.748;8.728;2024-01-30T16:15:15;230388.00;;;222.90
12234;BMP180;6179;51.748;8.728;2024-01-30T16:21:16;230388.00;;;222.90
12234;BMP180;6179;51.748;8.728;2024-01-30T16:27:16;230388.00;;;222.90
12234;BMP180;6179;51.748;8.728;2024-01-30T16:33:17;230388.00;;;222.90
12234;BMP180;6179;51.748;8.728;2024-01-30T16:39:18;230388.00;;;222.90
12234;BMP180;6179;51.748;8.728;2024-01-30T16:45:19;230388.00;;;222.90
12234;BMP180;6179;51.748;8.728;2024-01-30T16:51:20;230388.00;;;222.90
12234;BMP180;6179;51.748;8.728;2024-01-30T16:57:21;230388.00;;;222.90
12234;BMP180;6179;51.748;8.728;2024-01-30T17:03:21;230388.00;;;222.90
12234;BMP180;6179;51.748;8.728;2024-01-30T17:09:22;230388.00;;;222.90
12234;BMP180;6179;51.748;8.728;2024-01-30T17:15:23;230388.00;;;222.90
12234;BMP180;6179;51.748;8.728;2024-01-30T17:21:25;230388.00;;;222.90
12234;BMP180;6179;51.748;8.728;2024-01-30T17:27:25;230388.00;;;222.90
12234;BMP180;6179;51.748;8.728;2024-01-30T17:33:26;230388.00;;;222.90
12234;BMP180;6179;51.748;8.728;2024-01-30T17:39:27;230388.00;;;222.90
12234;BMP180;6179;51.748;8.728;2024-01-30T17:45:28;230388.00;;;222.90
12234;BMP180;6179;51.748;8.728;2024-01-30T17:51:28;230388.00;;;222.90
12234;BMP180;6179;51.748;8.728;2024-01-30T17:57:29;230388.00;;;222.90
12234;BMP180;6179;51.748;8.728;2024-01-30T18:03:30;230388.00;;;222.90
12234;BMP180;6179;51.748;8.728;2024-01-30T18:09:31;230388.00;;;222.90
12234;BMP180;6179;51.748;8.728;2024-01-30T18:15:31;230388.00;;;222.90
12234;BMP180;6179;51.748;8.728;2024-01-30T18:21:32;230388.00;;;222.90
12234;BMP180;6179;51.748;8.728;2024-01-30T18:27:33;230388.00;;;222.90
12234;BMP180;6179;51.748;8.728;2024-01-30T18:33:34;230388.00;;;222.90
12234;BMP180;6179;51.748;8.728;2024-01-30T18:39:35;230388.00;;;222.90
12234;BMP180;6179;51.748;8.728;2024-01-30T18:45:36;230388.00;;;222.90
12234;BMP180;6179;51.748;8.728;2024-01-30T18:51:36;230388.00;;;222.90
12234;BMP180;6179;51.748;8.728;2024-01-30T18:57:37;230388.00;;;222.90
12234;BMP180;6179;51.748;8.728;2024-01-30T19:03:38;230388.00;;;222.90
12234;BMP180;6179;51.748;8.728;2024-01-30T19:09:39;230388.00;;;222.90
12234;BMP180;6179;51.748;8.728;2024-01-30T19:15:40;230388.00;;;222.90
12234;BMP180;6179;51.748;8.728;2024-01-30T19:21:43;230388.00;;;222.90
12234;BMP180;6179;51.748;8.728;2024-01-30T19:27:43;230388.00;;;222.90
12234;BMP180;6179;51.748;8.728;2024-01-30T19:33:44;230388.00;;;222.90
12234;BMP180;6179;51.748;8.728;2024-01-30T19:39:45;230388.00;;;222.90
12234;BMP180;6179;51.748;8.728;2024-01-30T19:45:47;230388.00;;;222.90
12234;BMP180;6179;51.748;8.728;2024-01-30T19:51:48;230388.00;;;222.90
12234;BMP180;6179;51.748;8.728;2024-01-30T19:57:49;230388.00;;;222.90
12234;BMP180;6179;51.748;8.728;2024-01-30T20:03:50;230388.00;;;222.90
12234;BMP180;6179;51.748;8.728;2024-01-30T20:09:51;230388.00;;;222.90
12234;BMP180;6179;51.748;8.728;2024-01-30T20:15:52;230388.00;;;222.90
12234;BMP180;6179;51.748;8.728;2024-01-30T20:21:53;230388.00;;;222.90
12234;BMP180;6179;51.748;8.728;2024-01-30T20:27:54;230388.00;;;222.90
12234;BMP180;6179;51.748;8.728;2024-01-30T20:33:55;230388.00;;;222.90
12234;BMP180;6179;51.748;8.728;2024-01-30T20:39:56;230388.00;;;222.90
12234;BMP180;6179;51.748;8.728;2024-01-30T20:45:56;108423.00;;;222.90
12234;BMP180;6179;51.748;8.728;2024-01-30T20:51:58;230388.00;;;222.90
12234;BMP180;6179;51.748;8.728;2024-01-30T20:57:59;230388.00;;;222.90
12234;BMP180;6179;51.748;8.728;2024-01-30T21:04:00;230388.00;;;222.90
12234;BMP180;6179;51.748;8.728;2024-01-30T21:10:01;230388.00;;;222.90
12234;BMP180;6179;51.748;8.728;2024-01-30T21:16:03;230388.00;;;222.90
12234;BMP180;6179;51.748;8.728;2024-01-30T21:22:04;230388.00;;;222.90
12234;BMP180;6179;51.748;8.728;2024-01-30T21:28:05;230388.00;;;222.90
12234;BMP180;6179;51.748;8.728;2024-01-30T21:34:06;230388.00;;;222.90
12234;BMP180;6179;51.748;8.728;2024-01-30T21:40:07;230388.00;;;222.90
12234;BMP180;6179;51.748;8.728;2024-01-30T21:46:09;230388.00;;;222.90
12234;BMP180;6179;51.748;8.728;2024-01-30T21:52:10;230388.00;;;222.90
12234;BMP180;6179;51.748;8.728;2024-01-30T21:58:11;230388.00;;;222.90
12234;BMP180;6179;51.748;8.728;2024-01-30T22:04:12;230388.00;;;222.90
12234;BMP180;6179;51.748;8.728;2024-01-30T22:10:13;230388.00;;;222.90
12234;BMP180;6179;51.748;8.728;2024-01-30T22:16:14;230388.00;;;222.90
12234;BMP180;6179;51.748;8.728;2024-01-30T22:22:15;230388.00;;;222.90
12234;BMP180;6179;51.748;8.728;2024-01-30T22:28:16;230388.00;;;222.90
12234;BMP180;6179;51.748;8.728;2024-01-30T22:34:16;230388.00;;;222.90
12234;BMP180;6179;51.748;8.728;2024-01-30T22:40:17;230388.00;;;222.90
12234;BMP180;6179;51.748;8.728;2024-01-30T22:46:18;230388.00;;;222.90
12234;BMP180;6179;51.748;8.728;2024-01-30T22:52:19;230388.00;;;222.90
12234;BMP180;6179;51.748;8.728;2024-01-30T22:58:20;108420.00;;;222.90
12234;BMP180;6179;51.748;8.728;2024-01-30T23:04:21;230388.00;;;222.90
12234;BMP180;6179;51.748;8.728;2024-01-30T23:10:22;230388.00;;;222.90
12234;BMP180;6179;51.748;8.728;2024-01-30T23:16:23;108421.00;;;222.90
12234;BMP180;6179;51.748;8.728;2024-01-30T23:22:23;230388.00;;;222.90
12234;BMP180;6179;51.748;8.728;2024-01-30T23:28:24;108419.00;;;222.90
12234;BMP180;6179;51.748;8.728;2024-01-30T23:34:25;230388.00;;;222.90
12234;BMP180;6179;51.748;8.728;2024-01-30T23:40:26;230388.00;;;222.90
12234;BMP180;6179;51.748;8.728;2024-01-30T23:46:26;230388.00;;;222.90
12234;BMP180;6179;51.748;8.728;2024-01-30T23:52:28;230388.00;;;222.90
12234;BMP180;6179;51.748;8.728;2024-01-30T23:58:28;108416.00;;;222.90
